sensor_id;sensor_type;location;lat;lon;timestamp;pressure;altitude;pressure_sealevel;temperature;humidity
33625;BME280;19962;47.820;1.930;2023-02-12T00:02:22;102542.72;;;6.77;78.39
33625;BME280;19962;47.820;1.930;2023-02-12T00:04:48;102536.63;;;6.83;78.27
33625;BME280;19962;47.820;1.930;2023-02-12T00:07:14;102543.16;;;6.90;78.33
33625;BME280;19962;47.820;1.930;2023-02-12T00:09:40;102530.22;;;6.92;78.89
33625;BME280;19962;47.820;1.930;2023-02-12T00:12:07;102532.66;;;7.03;78.49
33625;BME280;19962;47.820;1.930;2023-02-12T00:14:33;102528.81;;;7.14;78.19
33625;BME280;19962;47.820;1.930;2023-02-12T00:16:59;102530.06;;;7.19;78.32
33625;BME280;19962;47.820;1.930;2023-02-12T00:19:25;102528.22;;;7.20;78.06
33625;BME280;19962;47.820;1.930;2023-02-12T00:21:51;102523.44;;;7.22;78.36
33625;BME280;19962;47.820;1.930;2023-02-12T00:24:17;102520.91;;;7.28;78.16
33625;BME280;19962;47.820;1.930;2023-02-12T00:26:44;102516.84;;;7.32;78.21
33625;BME280;19962;47.820;1.930;2023-02-12T00:29:10;102519.25;;;7.35;78.70
33625;BME280;19962;47.820;1.930;2023-02-12T00:31:36;102525.41;;;7.37;78.61
33625;BME280;19962;47.820;1.930;2023-02-12T00:34:02;102530.38;;;7.42;78.17
33625;BME280;19962;47.820;1.930;2023-02-12T00:36:29;102525.09;;;7.40;78.81
33625;BME280;19962;47.820;1.930;2023-02-12T00:38:56;102521.00;;;7.44;79.05
33625;BME280;19962;47.820;1.930;2023-02-12T00:41:23;102533.97;;;7.42;79.05
33625;BME280;19962;47.820;1.930;2023-02-12T00:43:49;102527.16;;;7.46;79.26
33625;BME280;19962;47.820;1.930;2023-02-12T00:46:16;102524.63;;;7.53;79.49
33625;BME280;19962;47.820;1.930;2023-02-12T00:48:42;102530.75;;;7.47;79.66
33625;BME280;19962;47.820;1.930;2023-02-12T00:51:09;102527.88;;;7.56;79.74
33625;BME280;19962;47.820;1.930;2023-02-12T00:53:35;102534.69;;;7.52;79.95
33625;BME280;19962;47.820;1.930;2023-02-12T00:56:01;102535.09;;;7.57;80.14
33625;BME280;19962;47.820;1.930;2023-02-12T00:58:28;102539.88;;;7.63;80.09
33625;BME280;19962;47.820;1.930;2023-02-12T01:00:54;102537.09;;;7.55;80.03
33625;BME280;19962;47.820;1.930;2023-02-12T01:03:20;102534.91;;;7.59;79.94
33625;BME280;19962;47.820;1.930;2023-02-12T01:05:47;102532.72;;;7.62;80.23
33625;BME280;19962;47.820;1.930;2023-02-12T01:08:14;102533.41;;;7.64;80.25
33625;BME280;19962;47.820;1.930;2023-02-12T01:10:42;102533.75;;;7.69;80.18
33625;BME280;19962;47.820;1.930;2023-02-12T01:13:13;102537.88;;;7.73;80.49
33625;BME280;19962;47.820;1.930;2023-02-12T01:15:40;102528.84;;;7.73;80.52
33625;BME280;19962;47.820;1.930;2023-02-12T01:18:06;102530.69;;;7.72;80.84
33625;BME280;19962;47.820;1.930;2023-02-12T01:20:33;102535.50;;;7.78;80.46
33625;BME280;19962;47.820;1.930;2023-02-12T01:22:59;102525.97;;;7.82;80.38
33625;BME280;19962;47.820;1.930;2023-02-12T01:25:26;102528.84;;;7.81;81.18
33625;BME280;19962;47.820;1.930;2023-02-12T01:27:53;102530.22;;;7.85;80.86
33625;BME280;19962;47.820;1.930;2023-02-12T01:30:20;102532.81;;;7.86;80.95
33625;BME280;19962;47.820;1.930;2023-02-12T01:32:49;102539.13;;;7.87;81.04
33625;BME280;19962;47.820;1.930;2023-02-12T01:35:15;102544.97;;;7.92;80.97
33625;BME280;19962;47.820;1.930;2023-02-12T01:37:41;102531.47;;;7.90;81.13
33625;BME280;19962;47.820;1.930;2023-02-12T01:40:10;102538.16;;;7.96;80.94
33625;BME280;19962;47.820;1.930;2023-02-12T01:42:39;102525.88;;;8.00;80.61
33625;BME280;19962;47.820;1.930;2023-02-12T01:47:42;102524.84;;;8.01;80.85
33625;BME280;19962;47.820;1.930;2023-02-12T01:50:12;102517.66;;;8.00;80.81
33625;BME280;19962;47.820;1.930;2023-02-12T01:52:44;102520.56;;;7.98;81.19
33625;BME280;19962;47.820;1.930;2023-02-12T01:55:13;102515.56;;;7.94;81.74
33625;BME280;19962;47.820;1.930;2023-02-12T01:57:42;102518.50;;;8.00;81.62
33625;BME280;19962;47.820;1.930;2023-02-12T02:00:17;102518.34;;;8.02;81.55
33625;BME280;19962;47.820;1.930;2023-02-12T02:02:47;102516.28;;;7.96;81.54
33625;BME280;19962;47.820;1.930;2023-02-12T02:05:21;102515.78;;;8.08;81.33
33625;BME280;19962;47.820;1.930;2023-02-12T02:07:49;102514.56;;;8.03;81.78
33625;BME280;19962;47.820;1.930;2023-02-12T02:10:15;102516.66;;;8.09;81.20
33625;BME280;19962;47.820;1.930;2023-02-12T02:12:42;102511.72;;;8.12;81.34
33625;BME280;19962;47.820;1.930;2023-02-12T02:15:28;102510.00;;;8.11;81.77
33625;BME280;19962;47.820;1.930;2023-02-12T02:18:32;102509.66;;;8.14;81.92
33625;BME280;19962;47.820;1.930;2023-02-12T02:21:09;102504.19;;;8.14;82.42
33625;BME280;19962;47.820;1.930;2023-02-12T02:35:36;102486.59;;;8.09;82.64
33625;BME280;19962;47.820;1.930;2023-02-12T02:43:22;102499.97;;;8.28;82.33
33625;BME280;19962;47.820;1.930;2023-02-12T02:45:57;102488.19;;;8.27;81.80
33625;BME280;19962;47.820;1.930;2023-02-12T02:48:52;102483.41;;;8.29;82.45
33625;BME280;19962;47.820;1.930;2023-02-12T02:51:24;102482.72;;;8.27;82.57
33625;BME280;19962;47.820;1.930;2023-02-12T02:54:06;102480.31;;;8.32;82.36
33625;BME280;19962;47.820;1.930;2023-02-12T02:56:37;102475.22;;;8.29;82.42
33625;BME280;19962;47.820;1.930;2023-02-12T02:59:08;102476.75;;;8.32;82.74
33625;BME280;19962;47.820;1.930;2023-02-12T03:01:39;102484.09;;;8.31;82.88
33625;BME280;19962;47.820;1.930;2023-02-12T03:04:14;102475.22;;;8.29;83.31
33625;BME280;19962;47.820;1.930;2023-02-12T03:07:00;102482.72;;;8.35;83.29
33625;BME280;19962;47.820;1.930;2023-02-12T03:09:29;102473.66;;;8.35;83.02
33625;BME280;19962;47.820;1.930;2023-02-12T03:12:02;102479.66;;;8.38;82.94
33625;BME280;19962;47.820;1.930;2023-02-12T03:14:41;102471.63;;;8.37;82.93
33625;BME280;19962;47.820;1.930;2023-02-12T03:17:16;102474.19;;;8.38;82.74
33625;BME280;19962;47.820;1.930;2023-02-12T03:19:54;102471.09;;;8.41;83.01
33625;BME280;19962;47.820;1.930;2023-02-12T03:22:33;102465.81;;;8.40;82.77
33625;BME280;19962;47.820;1.930;2023-02-12T03:25:11;102459.97;;;8.43;82.56
33625;BME280;19962;47.820;1.930;2023-02-12T03:27:46;102463.75;;;8.42;82.48
33625;BME280;19962;47.820;1.930;2023-02-12T03:30:15;102471.78;;;8.43;82.46
33625;BME280;19962;47.820;1.930;2023-02-12T03:32:53;102469.22;;;8.42;82.10
33625;BME280;19962;47.820;1.930;2023-02-12T03:35:36;102466.00;;;8.46;81.48
33625;BME280;19962;47.820;1.930;2023-02-12T03:41:19;102468.91;;;8.45;82.15
33625;BME280;19962;47.820;1.930;2023-02-12T03:44:10;102470.75;;;8.44;82.34
33625;BME280;19962;47.820;1.930;2023-02-12T03:49:38;102486.31;;;8.44;82.49
33625;BME280;19962;47.820;1.930;2023-02-12T03:52:07;102485.81;;;8.48;82.05
33625;BME280;19962;47.820;1.930;2023-02-12T03:54:33;102481.69;;;8.44;82.36
33625;BME280;19962;47.820;1.930;2023-02-12T03:57:10;102478.63;;;8.47;82.54
33625;BME280;19962;47.820;1.930;2023-02-12T03:59:39;102473.16;;;8.39;83.18
33625;BME280;19962;47.820;1.930;2023-02-12T04:02:06;102474.03;;;8.40;83.52
33625;BME280;19962;47.820;1.930;2023-02-12T04:04:33;102478.47;;;8.41;83.21
33625;BME280;19962;47.820;1.930;2023-02-12T04:07:00;102469.38;;;8.40;82.90
33625;BME280;19962;47.820;1.930;2023-02-12T04:09:27;102467.69;;;8.47;82.58
33625;BME280;19962;47.820;1.930;2023-02-12T04:12:20;102472.13;;;8.48;83.56
33625;BME280;19962;47.820;1.930;2023-02-12T04:15:24;102469.72;;;8.45;83.20
33625;BME280;19962;47.820;1.930;2023-02-12T04:18:00;102471.09;;;8.49;82.38
33625;BME280;19962;47.820;1.930;2023-02-12T04:23:33;102471.59;;;8.53;82.34
33625;BME280;19962;47.820;1.930;2023-02-12T04:31:54;102478.97;;;8.52;82.09
33625;BME280;19962;47.820;1.930;2023-02-12T04:39:40;102465.47;;;8.51;81.92
33625;BME280;19962;47.820;1.930;2023-02-12T04:42:07;102473.66;;;8.51;82.12
33625;BME280;19962;47.820;1.930;2023-02-12T04:44:38;102468.91;;;8.45;82.43
33625;BME280;19962;47.820;1.930;2023-02-12T04:47:05;102466.16;;;8.45;82.81
33625;BME280;19962;47.820;1.930;2023-02-12T04:49:31;102471.78;;;8.43;82.75
33625;BME280;19962;47.820;1.930;2023-02-12T04:51:57;102465.28;;;8.36;83.12
33625;BME280;19962;47.820;1.930;2023-02-12T04:54:23;102463.09;;;8.40;83.15
33625;BME280;19962;47.820;1.930;2023-02-12T04:56:49;102463.75;;;8.42;83.31
33625;BME280;19962;47.820;1.930;2023-02-12T04:59:16;102464.97;;;8.47;83.16
33625;BME280;19962;47.820;1.930;2023-02-12T05:01:42;102457.09;;;8.52;83.10
33625;BME280;19962;47.820;1.930;2023-02-12T05:04:11;102460.16;;;8.49;82.79
33625;BME280;19962;47.820;1.930;2023-02-12T05:06:38;102446.47;;;8.49;82.34
33625;BME280;19962;47.820;1.930;2023-02-12T05:09:05;102453.50;;;8.52;82.26
33625;BME280;19962;47.820;1.930;2023-02-12T05:11:31;102451.28;;;8.55;81.72
33625;BME280;19962;47.820;1.930;2023-02-12T05:13:58;102454.69;;;8.49;81.79
33625;BME280;19962;47.820;1.930;2023-02-12T05:16:25;102447.00;;;8.45;82.14
33625;BME280;19962;47.820;1.930;2023-02-12T05:18:51;102457.59;;;8.48;81.99
33625;BME280;19962;47.820;1.930;2023-02-12T05:21:17;102451.94;;;8.41;82.35
33625;BME280;19962;47.820;1.930;2023-02-12T05:23:43;102444.78;;;8.40;82.42
33625;BME280;19962;47.820;1.930;2023-02-12T05:26:14;102440.84;;;8.43;82.55
33625;BME280;19962;47.820;1.930;2023-02-12T05:28:41;102438.28;;;8.41;82.33
33625;BME280;19962;47.820;1.930;2023-02-12T05:31:09;102441.19;;;8.40;82.58
33625;BME280;19962;47.820;1.930;2023-02-12T05:33:35;102444.78;;;8.40;82.41
33625;BME280;19962;47.820;1.930;2023-02-12T05:36:06;102438.63;;;8.46;82.43
33625;BME280;19962;47.820;1.930;2023-02-12T05:38:32;102434.88;;;8.47;82.39
33625;BME280;19962;47.820;1.930;2023-02-12T05:41:07;102435.53;;;8.41;82.78
33625;BME280;19962;47.820;1.930;2023-02-12T05:43:34;102449.22;;;8.33;83.05
33625;BME280;19962;47.820;1.930;2023-02-12T05:46:01;102454.00;;;8.39;83.23
33625;BME280;19962;47.820;1.930;2023-02-12T05:48:28;102441.88;;;8.42;82.72
33625;BME280;19962;47.820;1.930;2023-02-12T05:51:00;102445.47;;;8.34;82.79
33625;BME280;19962;47.820;1.930;2023-02-12T05:53:26;102447.84;;;8.37;82.80
33625;BME280;19962;47.820;1.930;2023-02-12T05:55:52;102455.38;;;8.43;82.37
33625;BME280;19962;47.820;1.930;2023-02-12T05:58:18;102450.25;;;8.40;82.73
33625;BME280;19962;47.820;1.930;2023-02-12T06:00:44;102455.72;;;8.40;82.48
33625;BME280;19962;47.820;1.930;2023-02-12T06:03:10;102449.56;;;8.38;82.67
33625;BME280;19962;47.820;1.930;2023-02-12T06:05:37;102448.72;;;8.38;82.91
33625;BME280;19962;47.820;1.930;2023-02-12T06:08:03;102451.78;;;8.35;82.92
33625;BME280;19962;47.820;1.930;2023-02-12T06:10:29;102441.38;;;8.38;82.80
33625;BME280;19962;47.820;1.930;2023-02-12T06:12:55;102446.13;;;8.44;82.69
33625;BME280;19962;47.820;1.930;2023-02-12T06:15:21;102443.06;;;8.39;82.80
33625;BME280;19962;47.820;1.930;2023-02-12T06:17:47;102445.09;;;8.37;83.11
33625;BME280;19962;47.820;1.930;2023-02-12T06:20:13;102431.25;;;8.39;82.87
33625;BME280;19962;47.820;1.930;2023-02-12T06:22:39;102440.34;;;8.39;82.78
33625;BME280;19962;47.820;1.930;2023-02-12T06:25:06;102434.53;;;8.42;82.74
33625;BME280;19962;47.820;1.930;2023-02-12T06:27:32;102430.44;;;8.38;82.68
33625;BME280;19962;47.820;1.930;2023-02-12T06:29:58;102432.63;;;8.43;82.55
33625;BME280;19962;47.820;1.930;2023-02-12T06:32:24;102429.72;;;8.44;82.33
33625;BME280;19962;47.820;1.930;2023-02-12T06:34:50;102437.59;;;8.39;82.07
33625;BME280;19962;47.820;1.930;2023-02-12T06:37:16;102433.50;;;8.43;82.00
33625;BME280;19962;47.820;1.930;2023-02-12T06:39:42;102431.81;;;8.42;81.87
33625;BME280;19962;47.820;1.930;2023-02-12T06:42:08;102424.25;;;8.44;82.05
33625;BME280;19962;47.820;1.930;2023-02-12T06:44:34;102434.16;;;8.45;81.99
33625;BME280;19962;47.820;1.930;2023-02-12T06:47:00;102440.66;;;8.44;82.04
33625;BME280;19962;47.820;1.930;2023-02-12T06:49:27;102437.44;;;8.33;82.59
33625;BME280;19962;47.820;1.930;2023-02-12T06:51:53;102424.78;;;8.32;82.47
33625;BME280;19962;47.820;1.930;2023-02-12T06:54:19;102446.13;;;8.28;82.90
33625;BME280;19962;47.820;1.930;2023-02-12T06:56:45;102444.25;;;8.21;83.02
33625;BME280;19962;47.820;1.930;2023-02-12T06:59:13;102438.56;;;8.14;83.51
33625;BME280;19962;47.820;1.930;2023-02-12T07:01:40;102442.84;;;8.09;83.64
33625;BME280;19962;47.820;1.930;2023-02-12T07:04:07;102445.94;;;8.14;83.76
33625;BME280;19962;47.820;1.930;2023-02-12T07:06:34;102449.50;;;8.14;83.50
33625;BME280;19962;47.820;1.930;2023-02-12T07:09:01;102449.16;;;8.17;83.66
33625;BME280;19962;47.820;1.930;2023-02-12T07:11:30;102454.19;;;8.22;83.65
33625;BME280;19962;47.820;1.930;2023-02-12T07:13:57;102456.34;;;8.18;83.52
33625;BME280;19962;47.820;1.930;2023-02-12T07:16:23;102451.63;;;8.20;83.63
33625;BME280;19962;47.820;1.930;2023-02-12T07:18:50;102461.69;;;8.28;82.89
33625;BME280;19962;47.820;1.930;2023-02-12T07:21:16;102461.88;;;8.34;82.64
33625;BME280;19962;47.820;1.930;2023-02-12T07:23:49;102451.59;;;8.28;82.84
33625;BME280;19962;47.820;1.930;2023-02-12T07:26:16;102459.28;;;8.25;83.17
33625;BME280;19962;47.820;1.930;2023-02-12T07:28:43;102464.59;;;8.26;83.27
33625;BME280;19962;47.820;1.930;2023-02-12T07:31:15;102466.31;;;8.27;83.05
33625;BME280;19962;47.820;1.930;2023-02-12T07:33:42;102466.47;;;8.26;83.08
33625;BME280;19962;47.820;1.930;2023-02-12T07:36:11;102463.56;;;8.27;83.40
33625;BME280;19962;47.820;1.930;2023-02-12T07:38:38;102461.53;;;8.21;83.53
33625;BME280;19962;47.820;1.930;2023-02-12T07:41:18;102464.25;;;8.29;83.41
33625;BME280;19962;47.820;1.930;2023-02-12T07:43:46;102466.84;;;8.31;83.13
33625;BME280;19962;47.820;1.930;2023-02-12T07:46:16;102468.38;;;8.33;82.91
33625;BME280;19962;47.820;1.930;2023-02-12T07:48:43;102474.69;;;8.34;82.91
33625;BME280;19962;47.820;1.930;2023-02-12T07:51:12;102465.63;;;8.33;82.50
33625;BME280;19962;47.820;1.930;2023-02-12T07:53:39;102460.84;;;8.35;82.64
33625;BME280;19962;47.820;1.930;2023-02-12T07:58:46;102476.38;;;8.35;82.52
33625;BME280;19962;47.820;1.930;2023-02-12T08:03:45;102463.91;;;8.40;82.17
33625;BME280;19962;47.820;1.930;2023-02-12T08:06:15;102462.88;;;8.41;82.04
33625;BME280;19962;47.820;1.930;2023-02-12T08:08:41;102478.28;;;8.34;82.16
33625;BME280;19962;47.820;1.930;2023-02-12T08:11:08;102470.09;;;8.34;82.16
33625;BME280;19962;47.820;1.930;2023-02-12T08:13:36;102477.25;;;8.35;82.07
33625;BME280;19962;47.820;1.930;2023-02-12T08:16:04;102476.22;;;8.36;82.39
33625;BME280;19962;47.820;1.930;2023-02-12T08:18:32;102473.31;;;8.38;82.24
33625;BME280;19962;47.820;1.930;2023-02-12T08:21:05;102483.75;;;8.42;82.15
33625;BME280;19962;47.820;1.930;2023-02-12T08:23:32;102483.41;;;8.45;81.60
33625;BME280;19962;47.820;1.930;2023-02-12T08:28:35;102488.03;;;8.37;82.44
33625;BME280;19962;47.820;1.930;2023-02-12T08:31:03;102489.91;;;8.36;82.19
33625;BME280;19962;47.820;1.930;2023-02-12T08:33:30;102483.38;;;8.37;82.47
33625;BME280;19962;47.820;1.930;2023-02-12T08:36:07;102488.53;;;8.40;82.39
33625;BME280;19962;47.820;1.930;2023-02-12T08:38:34;102490.75;;;8.37;82.39
33625;BME280;19962;47.820;1.930;2023-02-12T08:41:02;102494.34;;;8.37;82.43
33625;BME280;19962;47.820;1.930;2023-02-12T08:43:30;102491.09;;;8.42;82.61
33625;BME280;19962;47.820;1.930;2023-02-12T08:46:04;102492.66;;;8.44;82.40
33625;BME280;19962;47.820;1.930;2023-02-12T08:48:31;102496.75;;;8.48;82.20
33625;BME280;19962;47.820;1.930;2023-02-12T08:51:04;102489.91;;;8.52;81.78
33625;BME280;19962;47.820;1.930;2023-02-12T08:53:30;102500.53;;;8.55;81.75
33625;BME280;19962;47.820;1.930;2023-02-12T08:55:56;102495.72;;;8.49;81.81
33625;BME280;19962;47.820;1.930;2023-02-12T08:58:22;102495.06;;;8.47;81.64
33625;BME280;19962;47.820;1.930;2023-02-12T09:00:49;102502.38;;;8.47;81.62
33625;BME280;19962;47.820;1.930;2023-02-12T09:03:15;102500.53;;;8.47;81.75
33625;BME280;19962;47.820;1.930;2023-02-12T09:05:41;102494.19;;;8.47;81.88
33625;BME280;19962;47.820;1.930;2023-02-12T09:08:08;102497.78;;;8.47;81.65
33625;BME280;19962;47.820;1.930;2023-02-12T09:10:42;102490.41;;;8.48;81.78
33625;BME280;19962;47.820;1.930;2023-02-12T09:13:09;102494.53;;;8.36;81.84
33625;BME280;19962;47.820;1.930;2023-02-12T09:15:40;102488.22;;;8.43;81.92
33625;BME280;19962;47.820;1.930;2023-02-12T09:18:06;102490.97;;;8.51;81.89
33625;BME280;19962;47.820;1.930;2023-02-12T09:20:35;102488.03;;;8.53;81.33
33625;BME280;19962;47.820;1.930;2023-02-12T09:23:01;102490.97;;;8.51;81.72
33625;BME280;19962;47.820;1.930;2023-02-12T09:25:28;102502.56;;;8.53;81.54
33625;BME280;19962;47.820;1.930;2023-02-12T09:27:54;102502.75;;;8.60;81.42
33625;BME280;19962;47.820;1.930;2023-02-12T09:30:21;102505.16;;;8.63;81.41
33625;BME280;19962;47.820;1.930;2023-02-12T09:32:47;102500.19;;;8.66;80.96
33625;BME280;19962;47.820;1.930;2023-02-12T09:35:13;102500.69;;;8.70;80.91
33625;BME280;19962;47.820;1.930;2023-02-12T09:37:39;102499.16;;;8.75;80.73
33625;BME280;19962;47.820;1.930;2023-02-12T09:40:07;102504.13;;;8.80;80.39
33625;BME280;19962;47.820;1.930;2023-02-12T09:42:59;102501.22;;;8.73;79.97
33625;BME280;19962;47.820;1.930;2023-02-12T09:45:31;102509.59;;;8.72;80.09
33625;BME280;19962;47.820;1.930;2023-02-12T09:51:05;102502.56;;;8.77;79.95
33625;BME280;19962;47.820;1.930;2023-02-12T09:53:38;102499.81;;;8.77;79.39
33625;BME280;19962;47.820;1.930;2023-02-12T09:56:20;102509.59;;;8.72;79.06
33625;BME280;19962;47.820;1.930;2023-02-12T09:58:53;102501.56;;;8.70;79.30
33625;BME280;19962;47.820;1.930;2023-02-12T10:01:22;102500.84;;;8.76;78.81
33625;BME280;19962;47.820;1.930;2023-02-12T10:03:50;102504.28;;;8.70;78.93
33625;BME280;19962;47.820;1.930;2023-02-12T10:06:20;102504.97;;;8.80;78.92
33625;BME280;19962;47.820;1.930;2023-02-12T10:09:15;102506.84;;;8.72;78.57
33625;BME280;19962;47.820;1.930;2023-02-12T10:28:35;102510.44;;;8.88;77.54
33625;BME280;19962;47.820;1.930;2023-02-12T10:31:33;102508.03;;;8.93;77.34
33625;BME280;19962;47.820;1.930;2023-02-12T10:34:20;102494.66;;;9.06;76.96
33625;BME280;19962;47.820;1.930;2023-02-12T10:36:49;102494.00;;;9.04;77.09
33625;BME280;19962;47.820;1.930;2023-02-12T10:39:31;102509.72;;;9.02;76.68
33625;BME280;19962;47.820;1.930;2023-02-12T10:43:00;102512.13;;;9.05;76.82
33625;BME280;19962;47.820;1.930;2023-02-12T10:44:55;102497.91;;;9.10;76.45
33625;BME280;19962;47.820;1.930;2023-02-12T10:47:23;102505.28;;;9.01;76.57
33625;BME280;19962;47.820;1.930;2023-02-12T10:50:01;102504.59;;;9.07;76.66
33625;BME280;19962;47.820;1.930;2023-02-12T10:52:50;102501.50;;;9.18;76.71
33625;BME280;19962;47.820;1.930;2023-02-12T10:55:24;102490.50;;;9.26;76.33
33625;BME280;19962;47.820;1.930;2023-02-12T10:57:51;102494.13;;;9.27;75.79
33625;BME280;19962;47.820;1.930;2023-02-12T11:00:37;102490.19;;;9.21;75.70
33625;BME280;19962;47.820;1.930;2023-02-12T11:05:39;102484.69;;;9.29;76.06
33625;BME280;19962;47.820;1.930;2023-02-12T11:08:05;102477.97;;;9.40;75.61
33625;BME280;19962;47.820;1.930;2023-02-12T11:10:38;102477.19;;;9.23;75.96
33625;BME280;19962;47.820;1.930;2023-02-12T11:13:05;102475.09;;;9.33;75.78
33625;BME280;19962;47.820;1.930;2023-02-12T11:15:47;102463.78;;;9.44;75.74
33625;BME280;19962;47.820;1.930;2023-02-12T11:18:28;102471.44;;;9.49;75.49
33625;BME280;19962;47.820;1.930;2023-02-12T11:21:11;102469.50;;;9.57;74.78
33625;BME280;19962;47.820;1.930;2023-02-12T11:23:39;102457.38;;;9.60;74.95
33625;BME280;19962;47.820;1.930;2023-02-12T11:28:57;102458.19;;;9.60;74.22
33625;BME280;19962;47.820;1.930;2023-02-12T11:31:26;102460.81;;;9.54;74.50
33625;BME280;19962;47.820;1.930;2023-02-12T11:34:25;102459.47;;;9.42;74.51
33625;BME280;19962;47.820;1.930;2023-02-12T11:36:54;102450.25;;;9.43;74.95
33625;BME280;19962;47.820;1.930;2023-02-12T11:39:28;102456.22;;;9.46;74.59
33625;BME280;19962;47.820;1.930;2023-02-12T11:42:21;102444.19;;;9.55;74.72
33625;BME280;19962;47.820;1.930;2023-02-12T11:44:57;102446.41;;;9.60;74.51
33625;BME280;19962;47.820;1.930;2023-02-12T11:47:27;102445.06;;;9.56;74.46
33625;BME280;19962;47.820;1.930;2023-02-12T11:50:24;102448.16;;;9.45;74.26
33625;BME280;19962;47.820;1.930;2023-02-12T11:52:56;102437.03;;;9.46;74.66
33625;BME280;19962;47.820;1.930;2023-02-12T11:55:29;102441.84;;;9.44;74.58
33625;BME280;19962;47.820;1.930;2023-02-12T11:58:16;102427.09;;;9.53;74.94
33625;BME280;19962;47.820;1.930;2023-02-12T12:04:04;102423.91;;;9.73;74.48
33625;BME280;19962;47.820;1.930;2023-02-12T12:06:53;102417.84;;;9.77;74.45
33625;BME280;19962;47.820;1.930;2023-02-12T12:12:12;102413.25;;;9.77;74.28
33625;BME280;19962;47.820;1.930;2023-02-12T12:14:53;102416.50;;;9.73;74.36
33625;BME280;19962;47.820;1.930;2023-02-12T12:17:44;102418.09;;;9.68;74.52
33625;BME280;19962;47.820;1.930;2023-02-12T12:20:36;102421.53;;;9.61;74.59
33625;BME280;19962;47.820;1.930;2023-02-12T12:23:17;102409.22;;;9.57;74.73
33625;BME280;19962;47.820;1.930;2023-02-12T12:25:51;102413.38;;;9.53;74.67
33625;BME280;19962;47.820;1.930;2023-02-12T12:28:47;102411.66;;;9.52;75.19
33625;BME280;19962;47.820;1.930;2023-02-12T12:31:38;102404.81;;;9.48;74.73
33625;BME280;19962;47.820;1.930;2023-02-12T12:34:09;102400.34;;;9.55;74.93
33625;BME280;19962;47.820;1.930;2023-02-12T12:36:43;102398.09;;;9.59;74.81
33625;BME280;19962;47.820;1.930;2023-02-12T12:39:36;102401.53;;;9.61;74.64
33625;BME280;19962;47.820;1.930;2023-02-12T12:56:36;102372.25;;;9.84;74.53
33625;BME280;19962;47.820;1.930;2023-02-12T13:11:27;102338.44;;;9.92;74.90
33625;BME280;19962;47.820;1.930;2023-02-12T13:14:16;102335.81;;;9.98;74.76
33625;BME280;19962;47.820;1.930;2023-02-12T13:16:59;102334.22;;;10.04;74.77
33625;BME280;19962;47.820;1.930;2023-02-12T13:19:35;102331.34;;;10.05;74.75
33625;BME280;19962;47.820;1.930;2023-02-12T13:22:31;102328.72;;;10.12;74.35
33625;BME280;19962;47.820;1.930;2023-02-12T13:27:40;102325.97;;;10.12;74.20
33625;BME280;19962;47.820;1.930;2023-02-12T13:32:56;102313.91;;;10.21;74.16
33625;BME280;19962;47.820;1.930;2023-02-12T13:35:28;102318.63;;;10.27;74.04
33625;BME280;19962;47.820;1.930;2023-02-12T13:37:56;102317.88;;;10.33;73.73
33625;BME280;19962;47.820;1.930;2023-02-12T13:40:24;102319.22;;;10.37;73.71
33625;BME280;19962;47.820;1.930;2023-02-12T13:54:36;102303.03;;;10.42;72.76
33625;BME280;19962;47.820;1.930;2023-02-12T13:57:01;102299.34;;;10.35;73.20
33625;BME280;19962;47.820;1.930;2023-02-12T14:02:01;102290.00;;;10.44;73.14
33625;BME280;19962;47.820;1.930;2023-02-12T14:04:41;102287.81;;;10.54;72.84
33625;BME280;19962;47.820;1.930;2023-02-12T14:07:10;102289.44;;;10.63;72.75
33625;BME280;19962;47.820;1.930;2023-02-12T14:15:24;102282.53;;;10.67;72.15
33625;BME280;19962;47.820;1.930;2023-02-12T14:20:31;102272.59;;;10.66;72.05
33625;BME280;19962;47.820;1.930;2023-02-12T14:33:44;102257.06;;;10.73;71.73
33625;BME280;19962;47.820;1.930;2023-02-12T14:36:15;102258.19;;;10.78;71.45
33625;BME280;19962;47.820;1.930;2023-02-12T14:41:24;102263.59;;;10.86;71.08
33625;BME280;19962;47.820;1.930;2023-02-12T14:47:02;102255.53;;;10.85;71.11
33625;BME280;19962;47.820;1.930;2023-02-12T14:49:44;102262.91;;;10.84;71.34
33625;BME280;19962;47.820;1.930;2023-02-12T14:52:32;102252.41;;;10.88;71.00
33625;BME280;19962;47.820;1.930;2023-02-12T14:55:22;102254.50;;;10.86;70.76
33625;BME280;19962;47.820;1.930;2023-02-12T14:57:49;102248.06;;;10.79;71.29
33625;BME280;19962;47.820;1.930;2023-02-12T15:02:44;102252.00;;;10.91;71.08
33625;BME280;19962;47.820;1.930;2023-02-12T15:05:37;102251.75;;;10.86;71.08
33625;BME280;19962;47.820;1.930;2023-02-12T15:13:45;102258.34;;;11.06;70.12
33625;BME280;19962;47.820;1.930;2023-02-12T15:21:55;102259.69;;;11.10;70.02
33625;BME280;19962;47.820;1.930;2023-02-12T15:24:23;102246.13;;;11.08;69.98
33625;BME280;19962;47.820;1.930;2023-02-12T15:26:55;102258.16;;;11.07;69.44
33625;BME280;19962;47.820;1.930;2023-02-12T15:31:54;102250.13;;;11.06;69.19
33625;BME280;19962;47.820;1.930;2023-02-12T15:34:24;102249.72;;;11.09;69.29
33625;BME280;19962;47.820;1.930;2023-02-12T15:36:59;102241.09;;;11.12;69.22
33625;BME280;19962;47.820;1.930;2023-02-12T15:39:26;102239.59;;;11.09;69.20
33625;BME280;19962;47.820;1.930;2023-02-12T15:41:56;102238.34;;;11.12;69.00
33625;BME280;19962;47.820;1.930;2023-02-12T15:44:30;102233.91;;;11.11;68.81
33625;BME280;19962;47.820;1.930;2023-02-12T15:46:58;102234.94;;;11.10;69.07
33625;BME280;19962;47.820;1.930;2023-02-12T15:49:30;102236.66;;;11.11;68.85
33625;BME280;19962;47.820;1.930;2023-02-12T15:51:58;102244.22;;;11.09;69.05
33625;BME280;19962;47.820;1.930;2023-02-12T15:54:27;102243.38;;;11.08;69.23
33625;BME280;19962;47.820;1.930;2023-02-12T15:56:54;102238.94;;;11.07;69.02
33625;BME280;19962;47.820;1.930;2023-02-12T15:59:23;102235.13;;;11.08;68.97
33625;BME280;19962;47.820;1.930;2023-02-12T16:01:58;102237.03;;;11.08;68.92
33625;BME280;19962;47.820;1.930;2023-02-12T16:04:33;102233.63;;;11.06;69.20
33625;BME280;19962;47.820;1.930;2023-02-12T16:07:02;102229.84;;;11.07;69.21